ボルドー の空港の天気 - METARとTAF

ボルドー・メリニャック空港 ( LFBD / BOD ) - フランス ボルドー
飛行場実況気象(Metar)
観測時間07/18 15:00 CEST (07/18 13:00 UTC)
風向・風速北 3m/s
視程10km以上
天気現象
なし
気温26℃
湿度42%
気圧1018hPa
METARLFBD 181300Z AUTO VRB05KT CAVOK 26/12 Q1018 NOSIG
過去の天気等 Google飛行場航空写真 Wunderground天気予報

過去48時間のMETAR

飛行場予報(TAF)
発表時間: 7/18 13:00 CEST (7/18 11:00 UTC)
予報対象時間: 18日14時 CEST ~ 19日20時 CEST
風向・風速西 4m/s
視程10km以上
全天の8割程度の雲 雲底高度 1220m
18日16時 CEST ~ 18日18時 CEST に徐々に
視程10km以上
なし
18日22時 CEST ~ 18日24時 CEST に徐々に
風向・風速不定 1m/s
19日4時 CEST ~ 19日6時 CEST に徐々に
全天の8割程度の雲 雲底高度 610m
19日4時 CEST ~ 19日11時 CEST に 確率 30% で一時的に
天気現象弱い霧雨雨
全天の8割程度の雲 雲底高度 370m
19日12時 CEST ~ 19日14時 CEST に徐々に
視程10km以上
なし
TAF LFBD 181100Z 1812/1918 28008KT 9999 BKN040 TX30/1915Z TN16/1903Z
BECMG 1814/1816 CAVOK
BECMG 1820/1822 VRB02KT
BECMG 1902/1904 BKN020
PROB30 TEMPO 1902/1909 -DZRA BKN012
BECMG 1910/1912 CAVOK